createdAt,value
2024-01-04T00:01:30.228Z,9.50
2024-01-04T00:03:57.128Z,9.50
2024-01-04T00:06:24.063Z,9.40
2024-01-04T00:08:51.052Z,9.40
2024-01-04T00:11:17.926Z,9.40
2024-01-04T00:13:44.679Z,9.40
2024-01-04T00:16:12.420Z,9.50
2024-01-04T00:18:39.893Z,9.50
2024-01-04T00:21:07.178Z,9.60
2024-01-04T00:23:35.878Z,9.60
2024-01-04T00:26:02.807Z,9.60
2024-01-04T00:28:29.655Z,9.60
2024-01-04T00:30:56.573Z,9.60
2024-01-04T00:33:23.637Z,9.60
2024-01-04T00:35:51.002Z,9.60
2024-01-04T00:38:17.922Z,9.70
2024-01-04T00:40:45.789Z,9.60
2024-01-04T00:43:12.686Z,9.60
2024-01-04T00:45:39.362Z,9.60
2024-01-04T00:48:06.902Z,9.60
2024-01-04T00:50:34.144Z,9.60
2024-01-04T00:53:09.212Z,9.50
2024-01-04T00:55:37.265Z,9.50
2024-01-04T00:58:05.066Z,9.50
2024-01-04T01:00:32.416Z,9.50
2024-01-04T01:02:59.721Z,9.50
2024-01-04T01:05:26.553Z,9.50
2024-01-04T01:07:53.284Z,9.50
2024-01-04T01:10:20.616Z,9.50
2024-01-04T01:12:47.583Z,9.50
2024-01-04T01:15:14.404Z,9.50
2024-01-04T01:17:41.357Z,9.50
2024-01-04T01:20:08.489Z,9.50
2024-01-04T01:22:35.350Z,9.50
2024-01-04T01:25:02.116Z,9.50
2024-01-04T01:27:28.867Z,9.50
2024-01-04T01:29:55.577Z,9.50
2024-01-04T01:32:22.287Z,9.50
2024-01-04T01:34:48.957Z,9.50
2024-01-04T01:37:16.793Z,9.50
2024-01-04T01:39:43.808Z,9.40
2024-01-04T01:42:10.537Z,9.40
2024-01-04T01:44:37.393Z,9.40
2024-01-04T01:47:04.352Z,9.40
2024-01-04T01:49:31.539Z,9.40
2024-01-04T01:51:59.243Z,9.40
2024-01-04T01:54:26.192Z,9.40
2024-01-04T01:56:53.006Z,9.40
2024-01-04T01:59:28.993Z,9.50
2024-01-04T02:01:55.900Z,9.50
2024-01-04T02:04:22.653Z,9.40
2024-01-04T02:06:49.538Z,9.50
2024-01-04T02:09:22.634Z,9.50
2024-01-04T02:11:49.428Z,9.50
2024-01-04T02:14:16.184Z,9.50
2024-01-04T02:16:42.936Z,9.50
2024-01-04T02:19:10.677Z,9.30
2024-01-04T02:21:38.421Z,9.40
2024-01-04T02:24:06.210Z,9.30
2024-01-04T02:26:33.414Z,9.30
2024-01-04T02:29:00.373Z,9.30
2024-01-04T02:31:27.097Z,9.30
2024-01-04T02:33:54.190Z,9.20
2024-01-04T02:36:20.984Z,9.20
2024-01-04T02:38:47.799Z,9.30
2024-01-04T02:41:14.572Z,9.20
2024-01-04T02:43:41.468Z,9.20
2024-01-04T02:46:08.206Z,9.20
2024-01-04T02:48:35.104Z,9.20
2024-01-04T02:51:02.160Z,9.20
2024-01-04T02:53:28.873Z,9.20
2024-01-04T02:55:56.539Z,9.10
2024-01-04T02:58:23.299Z,9.10
2024-01-04T03:00:50.026Z,9.10
2024-01-04T03:03:16.918Z,9.10
2024-01-04T03:05:43.730Z,9.00
2024-01-04T03:08:10.414Z,9.00
2024-01-04T03:10:37.142Z,9.00
2024-01-04T03:13:04.741Z,9.00
2024-01-04T03:15:31.465Z,8.90
2024-01-04T03:17:58.278Z,8.90
2024-01-04T03:20:25.046Z,8.90
2024-01-04T03:22:51.965Z,8.90
2024-01-04T03:25:19.382Z,8.90
2024-01-04T03:27:46.221Z,8.90
2024-01-04T03:30:13.374Z,9.00
2024-01-04T03:32:40.311Z,9.00
2024-01-04T03:35:07.457Z,9.00
2024-01-04T03:37:34.182Z,9.10
2024-01-04T03:40:00.917Z,9.10
2024-01-04T03:42:27.833Z,9.10
2024-01-04T03:44:54.488Z,9.20
2024-01-04T03:47:21.268Z,9.20
2024-01-04T03:49:48.128Z,9.20
2024-01-04T03:52:14.808Z,9.20
2024-01-04T03:54:41.760Z,9.20
2024-01-04T03:57:08.630Z,9.30
2024-01-04T03:59:38.523Z,9.30
2024-01-04T04:02:05.429Z,9.30
2024-01-04T04:04:32.186Z,9.20
2024-01-04T04:06:58.913Z,9.20
2024-01-04T04:09:25.939Z,9.20
2024-01-04T04:11:53.477Z,9.20
2024-01-04T04:14:23.298Z,9.20
2024-01-04T04:16:50.066Z,9.20
2024-01-04T04:19:17.012Z,9.10
2024-01-04T04:21:43.918Z,9.10
2024-01-04T04:24:10.749Z,9.10
2024-01-04T04:26:37.509Z,9.00
2024-01-04T04:29:04.253Z,9.10
2024-01-04T04:31:31.024Z,9.10
2024-01-04T04:33:57.899Z,9.10
2024-01-04T04:36:24.708Z,9.10
2024-01-04T04:38:51.451Z,9.10
2024-01-04T04:41:18.389Z,9.10
2024-01-04T04:43:45.125Z,9.20
2024-01-04T04:46:12.959Z,9.20
2024-01-04T04:48:40.277Z,9.20
2024-01-04T04:51:07.404Z,9.20
2024-01-04T04:53:34.408Z,9.20
2024-01-04T04:56:01.256Z,9.30
2024-01-04T04:58:28.943Z,9.20
2024-01-04T05:00:55.669Z,9.20
2024-01-04T05:03:22.641Z,9.20
2024-01-04T05:05:49.519Z,9.20
2024-01-04T05:08:16.936Z,9.10
2024-01-04T05:10:43.711Z,9.10
2024-01-04T05:13:10.450Z,9.10
2024-01-04T05:15:37.316Z,9.10
2024-01-04T05:18:04.336Z,9.20
2024-01-04T05:20:31.200Z,9.20
2024-01-04T05:22:58.433Z,9.20
2024-01-04T05:25:25.334Z,9.30
2024-01-04T05:27:53.028Z,9.20
2024-01-04T05:30:19.779Z,9.20
2024-01-04T05:32:46.646Z,9.20
2024-01-04T05:35:13.522Z,9.20
2024-01-04T05:37:40.197Z,9.20
2024-01-04T05:40:07.889Z,9.20
2024-01-04T05:42:34.627Z,9.20
2024-01-04T05:45:01.385Z,9.20
2024-01-04T05:47:28.214Z,9.30
2024-01-04T05:49:55.008Z,9.30
2024-01-04T05:52:21.819Z,9.40
2024-01-04T05:54:48.593Z,9.40
2024-01-04T05:57:15.281Z,9.40
2024-01-04T05:59:42.018Z,9.40
2024-01-04T06:02:08.734Z,9.40
2024-01-04T06:04:35.517Z,9.30
2024-01-04T06:07:02.285Z,9.30
2024-01-04T06:09:29.188Z,9.30
2024-01-04T06:11:55.974Z,9.40
2024-01-04T06:14:22.716Z,9.40
2024-01-04T06:16:49.403Z,9.40
2024-01-04T06:19:16.512Z,9.40
2024-01-04T06:21:43.426Z,9.40
2024-01-04T06:24:10.193Z,9.40
2024-01-04T06:26:37.172Z,9.40
2024-01-04T06:29:03.934Z,9.40
2024-01-04T06:31:30.916Z,9.40
2024-01-04T06:33:57.877Z,9.40
2024-01-04T06:36:24.808Z,9.40
2024-01-04T06:38:51.942Z,9.50
2024-01-04T06:41:24.710Z,9.50
2024-01-04T06:43:52.392Z,9.40
2024-01-04T06:46:19.165Z,9.40
2024-01-04T06:48:48.998Z,9.50
2024-01-04T06:51:15.981Z,9.40
2024-01-04T06:53:42.915Z,9.50
2024-01-04T06:56:10.333Z,9.50
2024-01-04T06:58:37.236Z,9.40
2024-01-04T07:01:05.332Z,9.50
2024-01-04T07:03:32.188Z,9.40
2024-01-04T07:05:59.086Z,9.50
2024-01-04T07:08:25.896Z,9.40
2024-01-04T07:10:55.096Z,9.40
2024-01-04T07:13:22.434Z,9.40
2024-01-04T07:15:50.264Z,9.40
2024-01-04T07:18:17.180Z,9.40
2024-01-04T07:20:44.449Z,9.40
2024-01-04T07:23:11.188Z,9.40
2024-01-04T07:25:37.996Z,9.40
2024-01-04T07:28:04.961Z,9.40
2024-01-04T07:30:31.723Z,9.30
2024-01-04T07:32:59.594Z,9.30
2024-01-04T07:35:27.766Z,9.30
2024-01-04T07:37:54.771Z,9.30
2024-01-04T07:40:21.513Z,9.40
2024-01-04T07:42:48.316Z,9.30
2024-01-04T07:45:15.264Z,9.40
2024-01-04T07:47:42.359Z,9.40
2024-01-04T07:50:09.482Z,9.40
2024-01-04T07:52:36.245Z,9.30
2024-01-04T07:55:06.284Z,9.40
2024-01-04T07:57:34.484Z,9.30
2024-01-04T08:00:01.192Z,9.40
2024-01-04T08:02:31.157Z,9.50
2024-01-04T08:04:58.062Z,9.40
2024-01-04T08:07:24.970Z,9.40
2024-01-04T08:09:52.063Z,9.40
2024-01-04T08:12:18.820Z,9.40
2024-01-04T08:14:45.692Z,9.40
2024-01-04T08:17:12.593Z,9.30
2024-01-04T08:19:39.547Z,9.30
2024-01-04T08:22:06.333Z,9.30
2024-01-04T08:24:33.133Z,9.30
2024-01-04T08:26:59.986Z,9.30
2024-01-04T08:29:26.800Z,9.30
2024-01-04T08:31:53.473Z,9.30
2024-01-04T08:34:20.445Z,9.30
2024-01-04T08:36:47.273Z,9.30
2024-01-04T08:39:14.904Z,9.20
2024-01-04T08:41:41.746Z,9.30
2024-01-04T08:44:08.638Z,9.30
2024-01-04T08:46:38.843Z,9.30
2024-01-04T08:49:07.339Z,9.30
2024-01-04T08:51:34.750Z,9.40
2024-01-04T08:54:01.582Z,9.30
2024-01-04T08:56:28.342Z,9.40
2024-01-04T08:58:56.131Z,9.40
2024-01-04T09:01:22.950Z,9.40
2024-01-04T09:03:50.766Z,9.40
2024-01-04T09:06:17.701Z,9.40
2024-01-04T09:08:44.547Z,9.40
2024-01-04T09:11:11.210Z,9.50
2024-01-04T09:13:38.124Z,9.50
2024-01-04T09:16:05.375Z,9.50
2024-01-04T09:18:34.437Z,9.40
2024-01-04T09:21:01.415Z,9.50
2024-01-04T09:23:28.187Z,9.50
2024-01-04T09:25:54.969Z,9.50
2024-01-04T09:28:24.948Z,9.40
2024-01-04T09:30:51.986Z,9.40
2024-01-04T09:33:18.988Z,9.40
2024-01-04T09:35:48.657Z,9.40
2024-01-04T09:38:15.426Z,9.50
2024-01-04T09:40:42.242Z,9.60
2024-01-04T09:43:09.561Z,9.60
2024-01-04T09:45:37.938Z,9.60
2024-01-04T09:48:09.580Z,9.50
2024-01-04T09:50:41.402Z,9.50
2024-01-04T09:53:08.637Z,9.50
2024-01-04T09:55:36.291Z,9.50
2024-01-04T09:58:04.264Z,9.50
2024-01-04T10:00:31.037Z,9.50
2024-01-04T10:02:59.135Z,9.50
2024-01-04T10:05:26.628Z,9.50
2024-01-04T10:07:58.495Z,9.50
2024-01-04T10:10:30.007Z,9.60
2024-01-04T10:12:57.382Z,9.60
2024-01-04T10:15:24.307Z,9.60
2024-01-04T10:17:52.170Z,9.60
2024-01-04T10:20:19.001Z,9.70
2024-01-04T10:22:47.381Z,9.70
2024-01-04T10:25:19.419Z,9.80
2024-01-04T10:27:57.152Z,9.90
2024-01-04T10:30:24.128Z,9.80
2024-01-04T10:32:54.019Z,9.90
2024-01-04T10:35:28.718Z,9.90
2024-01-04T10:37:59.777Z,9.90
2024-01-04T10:40:29.821Z,10.00
2024-01-04T10:42:58.699Z,10.00
2024-01-04T10:45:28.824Z,10.00
2024-01-04T10:47:56.887Z,10.00
2024-01-04T10:50:26.909Z,9.90
2024-01-04T10:52:57.107Z,9.90
2024-01-04T10:55:25.297Z,9.90
2024-01-04T10:57:52.885Z,9.90
2024-01-04T11:00:20.168Z,9.90
2024-01-04T11:02:48.299Z,9.90
2024-01-04T11:05:15.940Z,10.00
2024-01-04T11:07:43.516Z,10.00
2024-01-04T11:10:12.014Z,10.00
2024-01-04T11:12:41.984Z,10.10
2024-01-04T11:15:10.324Z,10.30
2024-01-04T11:17:59.645Z,10.30
2024-01-04T11:20:27.892Z,10.40
2024-01-04T11:22:59.521Z,10.40
2024-01-04T11:25:49.589Z,10.30
2024-01-04T11:28:25.358Z,10.40
2024-01-04T11:31:01.093Z,10.70
2024-01-04T11:33:28.658Z,10.80
2024-01-04T11:35:56.729Z,10.80
2024-01-04T11:38:25.088Z,10.60
2024-01-04T11:40:52.288Z,10.60
2024-01-04T11:43:19.214Z,10.60
2024-01-04T11:45:46.463Z,10.80
2024-01-04T11:48:14.301Z,11.00
2024-01-04T11:50:49.307Z,11.30
2024-01-04T11:53:18.086Z,11.60
2024-01-04T11:55:45.109Z,12.30
2024-01-04T11:58:29.646Z,12.70
2024-01-04T12:00:57.658Z,13.90
2024-01-04T12:03:30.119Z,16.00
2024-01-04T12:05:57.008Z,15.40
2024-01-04T12:08:24.743Z,14.60
2024-01-04T12:10:55.154Z,13.70
2024-01-04T12:13:22.001Z,13.30
2024-01-04T12:15:48.821Z,13.00
2024-01-04T12:18:15.848Z,12.40
2024-01-04T12:20:42.761Z,12.10
2024-01-04T12:23:09.873Z,12.10
2024-01-04T12:25:37.225Z,12.10
2024-01-04T12:28:05.345Z,11.90
2024-01-04T12:30:32.871Z,12.00
2024-01-04T12:33:01.863Z,11.90
2024-01-04T12:35:29.135Z,11.70
2024-01-04T12:38:00.187Z,11.50
2024-01-04T12:40:27.427Z,11.20
2024-01-04T12:42:54.338Z,11.00
2024-01-04T12:45:23.703Z,10.80
2024-01-04T12:48:00.613Z,10.70
2024-01-04T12:50:28.900Z,10.90
2024-01-04T12:52:55.551Z,11.00
2024-01-04T12:55:22.230Z,11.00
2024-01-04T12:57:48.977Z,11.20
2024-01-04T13:00:16.557Z,11.40
2024-01-04T13:02:44.463Z,11.70
2024-01-04T13:05:11.172Z,11.80
2024-01-04T13:07:38.377Z,12.10
2024-01-04T13:10:05.685Z,12.10
2024-01-04T13:12:32.395Z,12.10
2024-01-04T13:14:59.281Z,13.10
2024-01-04T13:17:29.101Z,14.50
2024-01-04T13:19:55.886Z,15.60
2024-01-04T13:22:22.977Z,17.00
2024-01-04T13:24:49.623Z,17.40
2024-01-04T13:27:17.895Z,16.80
2024-01-04T13:29:44.670Z,15.90
2024-01-04T13:32:11.633Z,15.10
2024-01-04T13:34:38.752Z,14.90
2024-01-04T13:37:05.721Z,15.10
2024-01-04T13:39:32.381Z,15.60
2024-01-04T13:41:59.196Z,15.90
2024-01-04T13:44:25.849Z,15.70
2024-01-04T13:46:52.501Z,15.60
2024-01-04T13:49:19.598Z,15.60
2024-01-04T13:51:46.296Z,16.20
2024-01-04T13:54:13.473Z,16.40
2024-01-04T13:56:41.388Z,17.50
2024-01-04T13:59:08.198Z,18.40
2024-01-04T14:01:35.036Z,18.50
2024-01-04T14:04:01.876Z,18.00
2024-01-04T14:06:28.645Z,17.50
2024-01-04T14:08:56.980Z,17.10
2024-01-04T14:11:23.751Z,16.30
2024-01-04T14:13:52.065Z,15.90
2024-01-04T14:16:18.965Z,15.40
2024-01-04T14:18:45.696Z,14.80
2024-01-04T14:21:12.449Z,14.60
2024-01-04T14:23:39.114Z,14.40
2024-01-04T14:26:06.269Z,14.10
2024-01-04T14:28:40.945Z,14.00
2024-01-04T14:31:22.541Z,14.00
2024-01-04T14:34:05.005Z,13.70
2024-01-04T14:36:35.983Z,13.00
2024-01-04T14:39:05.542Z,12.80
2024-01-04T14:41:32.302Z,12.60
2024-01-04T14:43:59.135Z,12.00
2024-01-04T14:46:26.565Z,11.70
2024-01-04T14:48:53.516Z,11.30
2024-01-04T14:51:24.128Z,11.10
2024-01-04T14:53:51.313Z,11.00
2024-01-04T14:56:19.318Z,10.80
2024-01-04T14:58:47.925Z,10.40
2024-01-04T15:01:18.628Z,10.20
2024-01-04T15:03:46.866Z,10.10
2024-01-04T15:06:13.735Z,10.10
2024-01-04T15:08:40.639Z,10.00
2024-01-04T15:11:07.926Z,9.80
2024-01-04T15:13:34.699Z,9.80
2024-01-04T15:16:01.546Z,9.70
2024-01-04T15:18:28.707Z,9.70
2024-01-04T15:20:55.647Z,9.60
2024-01-04T15:23:23.676Z,9.60
2024-01-04T15:25:50.454Z,9.50
2024-01-04T15:28:17.265Z,9.50
2024-01-04T15:30:44.186Z,9.50
2024-01-04T15:33:11.041Z,9.40
2024-01-04T15:35:37.835Z,9.40
2024-01-04T15:38:04.738Z,9.40
2024-01-04T15:40:31.455Z,9.30
2024-01-04T15:42:58.991Z,9.30
2024-01-04T15:45:26.052Z,9.30
2024-01-04T15:47:54.311Z,9.10
2024-01-04T15:50:21.110Z,9.10
2024-01-04T15:52:47.756Z,9.00
2024-01-04T15:55:14.552Z,8.90
2024-01-04T15:57:41.197Z,8.80
2024-01-04T16:00:08.314Z,8.70
2024-01-04T16:02:35.541Z,8.60
2024-01-04T16:05:03.043Z,8.50
2024-01-04T16:07:30.042Z,8.40
2024-01-04T16:09:56.800Z,8.40
2024-01-04T16:12:26.937Z,8.30
2024-01-04T16:14:53.995Z,8.20
2024-01-04T16:17:20.839Z,8.20
2024-01-04T16:19:47.846Z,8.10
2024-01-04T16:22:14.682Z,8.10
2024-01-04T16:24:41.368Z,8.10
2024-01-04T16:27:08.072Z,8.00
2024-01-04T16:29:34.858Z,8.00
2024-01-04T16:32:01.594Z,8.00
2024-01-04T16:34:28.481Z,8.00
2024-01-04T16:36:55.264Z,8.00
2024-01-04T16:39:27.906Z,7.90
2024-01-04T16:41:56.534Z,7.90
2024-01-04T16:44:23.298Z,7.90
2024-01-04T16:46:50.053Z,7.90
2024-01-04T16:49:16.762Z,7.90
2024-01-04T16:51:43.963Z,7.90
2024-01-04T16:54:10.845Z,7.90
2024-01-04T16:56:37.764Z,7.90
2024-01-04T16:59:04.475Z,7.80
2024-01-04T17:01:31.509Z,7.80
2024-01-04T17:04:01.662Z,7.80
2024-01-04T17:06:29.450Z,7.80
2024-01-04T17:08:56.870Z,7.90
2024-01-04T17:11:23.740Z,7.90
2024-01-04T17:13:50.516Z,7.90
2024-01-04T17:16:19.708Z,7.90
2024-01-04T17:18:49.241Z,8.00
2024-01-04T17:21:17.006Z,8.10
2024-01-04T17:23:45.446Z,8.10
2024-01-04T17:26:12.288Z,8.10
2024-01-04T17:28:43.158Z,8.10
2024-01-04T17:31:10.622Z,8.20
2024-01-04T17:33:37.624Z,8.20
2024-01-04T17:36:16.463Z,8.20
2024-01-04T17:38:51.436Z,8.20
2024-01-04T17:41:18.396Z,8.10
2024-01-04T17:43:45.277Z,8.10
2024-01-04T17:46:12.940Z,8.10
2024-01-04T17:48:39.970Z,8.00
2024-01-04T17:51:18.322Z,8.00
2024-01-04T17:53:45.101Z,7.90
2024-01-04T17:56:12.414Z,7.80
2024-01-04T17:58:39.134Z,7.70
2024-01-04T18:01:05.919Z,7.70
2024-01-04T18:03:33.010Z,7.60
2024-01-04T18:06:00.160Z,7.60
2024-01-04T18:08:27.061Z,7.50
2024-01-04T18:10:53.761Z,7.50
2024-01-04T18:13:20.437Z,7.40
2024-01-04T18:15:47.126Z,7.30
2024-01-04T18:18:13.916Z,7.30
2024-01-04T18:20:40.744Z,7.20
2024-01-04T18:23:07.469Z,7.20
2024-01-04T18:25:40.989Z,7.10
2024-01-04T18:28:10.270Z,7.00
2024-01-04T18:30:38.176Z,7.00
2024-01-04T18:33:05.269Z,6.90
2024-01-04T18:35:32.193Z,6.90
2024-01-04T18:37:59.222Z,6.80
2024-01-04T18:40:28.879Z,6.80
2024-01-04T18:42:55.549Z,6.80
2024-01-04T18:45:22.271Z,6.80
2024-01-04T18:47:49.334Z,6.80
2024-01-04T18:50:16.440Z,6.70
2024-01-04T18:52:43.408Z,6.70
2024-01-04T18:55:10.224Z,6.60
2024-01-04T18:57:36.971Z,6.60
2024-01-04T19:00:05.478Z,6.60
2024-01-04T19:02:32.225Z,6.50
2024-01-04T19:04:58.958Z,6.60
2024-01-04T19:07:25.621Z,6.60
2024-01-04T19:09:52.574Z,6.60
2024-01-04T19:12:19.343Z,6.60
2024-01-04T19:14:46.079Z,6.70
2024-01-04T19:17:12.992Z,6.70
2024-01-04T19:19:40.358Z,6.80
2024-01-04T19:22:07.057Z,6.80
2024-01-04T19:24:33.842Z,6.90
2024-01-04T19:27:00.597Z,6.90
2024-01-04T19:29:27.291Z,7.00
2024-01-04T19:31:54.421Z,7.00
2024-01-04T19:34:21.243Z,7.00
2024-01-04T19:36:49.340Z,7.00
2024-01-04T19:39:18.864Z,7.00
2024-01-04T19:41:46.303Z,7.00
2024-01-04T19:44:13.068Z,6.90
2024-01-04T19:46:39.897Z,6.90
2024-01-04T19:49:07.035Z,6.90
2024-01-04T19:51:34.910Z,6.90
2024-01-04T19:54:01.705Z,6.90
2024-01-04T19:56:28.686Z,6.80
2024-01-04T19:58:55.581Z,6.80
2024-01-04T20:01:22.558Z,6.80
2024-01-04T20:03:50.682Z,6.90
2024-01-04T20:06:17.687Z,7.00
2024-01-04T20:08:44.432Z,7.00
2024-01-04T20:11:11.491Z,7.00
2024-01-04T20:13:38.389Z,7.00
2024-01-04T20:16:05.367Z,7.00
2024-01-04T20:18:32.205Z,7.00
2024-01-04T20:20:59.026Z,7.10
2024-01-04T20:23:25.733Z,7.10
2024-01-04T20:25:52.453Z,7.10
2024-01-04T20:28:19.116Z,7.10
2024-01-04T20:30:45.851Z,7.20
2024-01-04T20:33:12.975Z,7.10
2024-01-04T20:35:39.712Z,7.10
2024-01-04T20:38:06.512Z,7.20
2024-01-04T20:40:33.285Z,7.20
2024-01-04T20:43:01.718Z,7.20
2024-01-04T20:45:28.502Z,7.20
2024-01-04T20:47:55.611Z,7.30
2024-01-04T20:50:22.429Z,7.20
2024-01-04T20:52:49.177Z,7.30
2024-01-04T20:55:15.877Z,7.30
2024-01-04T20:57:42.513Z,7.30
2024-01-04T21:00:10.843Z,7.30
2024-01-04T21:02:37.542Z,7.30
2024-01-04T21:05:08.184Z,7.40
2024-01-04T21:07:39.859Z,7.40
2024-01-04T21:10:06.854Z,7.50
2024-01-04T21:12:33.584Z,7.50
2024-01-04T21:15:00.425Z,7.50
2024-01-04T21:19:58.006Z,7.50
2024-01-04T21:22:24.780Z,7.50
2024-01-04T21:24:51.484Z,7.50
2024-01-04T21:27:18.289Z,7.50
2024-01-04T21:29:45.088Z,7.50
2024-01-04T21:32:11.792Z,7.60
2024-01-04T21:34:38.571Z,7.70
2024-01-04T21:37:05.838Z,7.80
2024-01-04T21:39:33.658Z,7.70
2024-01-04T21:42:00.810Z,7.70
2024-01-04T21:44:27.607Z,7.70
2024-01-04T21:46:54.385Z,7.70
2024-01-04T21:49:22.447Z,7.80
2024-01-04T21:51:52.514Z,7.90
2024-01-04T21:54:19.463Z,8.00
2024-01-04T21:56:46.241Z,8.00
2024-01-04T21:59:13.016Z,7.90
2024-01-04T22:01:40.624Z,7.90
2024-01-04T22:04:07.711Z,7.90
2024-01-04T22:06:34.646Z,7.90
2024-01-04T22:09:03.579Z,8.00
2024-01-04T22:11:30.673Z,8.00
2024-01-04T22:14:01.508Z,8.00
2024-01-04T22:16:31.823Z,7.90
2024-01-04T22:18:58.611Z,7.90
2024-01-04T22:21:25.452Z,7.90
2024-01-04T22:23:52.318Z,7.80
2024-01-04T22:26:19.336Z,7.80
2024-01-04T22:28:45.990Z,7.80
2024-01-04T22:31:12.717Z,7.80
2024-01-04T22:33:39.540Z,7.70
2024-01-04T22:36:07.114Z,7.70
2024-01-04T22:38:33.961Z,7.60
2024-01-04T22:41:00.712Z,7.60
2024-01-04T22:43:27.561Z,7.60
2024-01-04T22:45:54.590Z,7.60
2024-01-04T22:48:21.444Z,7.60
2024-01-04T22:50:48.321Z,7.50
2024-01-04T22:53:16.280Z,7.60
2024-01-04T22:55:43.053Z,7.60
2024-01-04T22:58:09.782Z,7.60
2024-01-04T23:00:36.626Z,7.60
2024-01-04T23:03:03.557Z,7.50
2024-01-04T23:05:30.349Z,7.50
2024-01-04T23:07:57.618Z,7.50
2024-01-04T23:10:24.417Z,7.60
2024-01-04T23:12:52.608Z,7.60
2024-01-04T23:15:19.531Z,7.50
2024-01-04T23:17:47.306Z,7.50
2024-01-04T23:20:14.243Z,7.60
2024-01-04T23:22:41.020Z,7.60
2024-01-04T23:25:09.477Z,7.70
2024-01-04T23:27:36.379Z,7.60
2024-01-04T23:30:04.180Z,7.60
2024-01-04T23:32:31.236Z,7.60
2024-01-04T23:34:58.197Z,7.60
2024-01-04T23:37:25.089Z,7.70
2024-01-04T23:39:51.892Z,7.70
2024-01-04T23:42:18.595Z,7.70
2024-01-04T23:44:45.455Z,7.70
2024-01-04T23:47:12.178Z,7.80
2024-01-04T23:49:39.052Z,7.80
2024-01-04T23:52:06.112Z,7.80
2024-01-04T23:54:32.999Z,7.90
2024-01-04T23:56:59.732Z,7.90
2024-01-04T23:59:26.681Z,7.80
